createdAt,value
2019-05-01T00:00:16.277Z,0.00
2019-05-01T00:01:13.840Z,0.00
2019-05-01T00:02:13.828Z,0.00
2019-05-01T00:03:13.818Z,0.00
2019-05-01T00:04:13.807Z,0.00
2019-05-01T00:05:13.796Z,0.00
2019-05-01T00:06:13.823Z,0.00
2019-05-01T00:07:13.775Z,0.00
2019-05-01T00:08:13.762Z,0.00
2019-05-01T00:09:13.752Z,0.00
2019-05-01T00:10:13.741Z,0.00
2019-05-01T00:11:13.736Z,0.00
2019-05-01T00:12:13.723Z,0.00
2019-05-01T00:13:13.711Z,0.00
2019-05-01T00:14:13.701Z,0.00
2019-05-01T00:15:13.691Z,0.00
2019-05-01T00:16:13.680Z,0.00
2019-05-01T00:17:13.666Z,0.00
2019-05-01T00:18:13.655Z,0.00
2019-05-01T00:19:13.646Z,0.00
2019-05-01T00:20:13.635Z,0.00
2019-05-01T00:21:13.623Z,0.00
2019-05-01T00:22:13.613Z,0.00
2019-05-01T00:23:13.602Z,0.00
2019-05-01T00:24:13.597Z,0.00
2019-05-01T00:25:13.580Z,0.00
2019-05-01T00:26:13.573Z,0.00
2019-05-01T00:27:13.559Z,0.00
2019-05-01T00:28:13.549Z,0.00
2019-05-01T00:29:13.537Z,0.00
2019-05-01T00:30:13.526Z,0.00
2019-05-01T00:31:13.658Z,0.00
2019-05-01T00:32:13.507Z,0.00
2019-05-01T00:33:13.499Z,0.00
2019-05-01T00:34:13.482Z,0.00
2019-05-01T00:35:13.472Z,0.00
2019-05-01T00:36:13.461Z,0.00
2019-05-01T00:37:13.450Z,0.00
2019-05-01T00:38:13.440Z,0.00
2019-05-01T00:39:13.431Z,0.00
2019-05-01T00:40:13.418Z,0.00
2019-05-01T00:41:13.408Z,0.00
2019-05-01T00:42:13.403Z,0.00
2019-05-01T00:43:13.386Z,0.00
2019-05-01T00:44:13.374Z,0.00
2019-05-01T00:45:13.385Z,0.00
2019-05-01T00:46:13.356Z,0.00
2019-05-01T00:47:13.343Z,0.00
2019-05-01T00:48:13.335Z,0.00
2019-05-01T00:49:13.322Z,0.00
2019-05-01T00:50:13.310Z,0.00
2019-05-01T00:51:13.306Z,0.00
2019-05-01T00:52:13.295Z,0.00
2019-05-01T00:53:13.278Z,0.00
2019-05-01T00:54:13.266Z,0.00
2019-05-01T00:55:13.257Z,0.00
2019-05-01T00:56:13.245Z,0.00
2019-05-01T00:57:13.235Z,0.00
2019-05-01T00:58:13.224Z,0.00
2019-05-01T00:59:13.213Z,0.00
2019-05-01T01:00:13.203Z,0.00
2019-05-01T01:01:13.194Z,0.00
2019-05-01T01:02:13.189Z,0.00
2019-05-01T01:03:13.171Z,0.00
2019-05-01T01:04:13.163Z,0.00
2019-05-01T01:05:13.148Z,0.00
2019-05-01T01:06:13.137Z,0.00
2019-05-01T01:07:13.127Z,0.00
2019-05-01T01:08:13.121Z,0.00
2019-05-01T01:09:13.105Z,0.00
2019-05-01T01:10:13.096Z,0.00
2019-05-01T01:11:13.084Z,0.00
2019-05-01T01:12:13.073Z,0.00
2019-05-01T01:13:13.062Z,0.00
2019-05-01T01:14:13.054Z,0.00
2019-05-01T01:15:13.043Z,0.00
2019-05-01T01:16:13.034Z,0.00
2019-05-01T01:17:13.021Z,0.00
2019-05-01T01:18:13.009Z,0.00
2019-05-01T01:19:12.998Z,0.00
2019-05-01T01:20:12.989Z,0.00
2019-05-01T01:21:12.978Z,0.00
2019-05-01T01:22:12.965Z,0.00
2019-05-01T01:23:12.956Z,0.00
2019-05-01T01:24:12.944Z,0.00
2019-05-01T01:25:12.937Z,0.00
2019-05-01T01:26:12.922Z,0.00
2019-05-01T01:27:12.913Z,0.00
2019-05-01T01:28:12.901Z,0.00
2019-05-01T01:29:12.890Z,0.00
2019-05-01T01:30:12.881Z,0.00
2019-05-01T01:31:13.006Z,0.00
2019-05-01T01:32:12.858Z,0.00
2019-05-01T01:33:12.849Z,0.00
2019-05-01T01:34:12.835Z,0.00
2019-05-01T01:35:12.827Z,0.00
2019-05-01T01:36:12.815Z,0.00
2019-05-01T01:37:12.808Z,0.00
2019-05-01T01:38:12.797Z,0.00
2019-05-01T01:39:12.782Z,0.00
2019-05-01T01:40:12.829Z,0.00
2019-05-01T01:41:12.764Z,0.00
2019-05-01T01:42:12.750Z,0.00
2019-05-01T01:43:12.740Z,0.00
2019-05-01T01:44:12.731Z,0.00
2019-05-01T01:45:12.718Z,0.00
2019-05-01T01:46:12.708Z,0.00
2019-05-01T01:47:12.697Z,0.00
2019-05-01T01:48:12.686Z,0.00
2019-05-01T01:49:12.676Z,0.00
2019-05-01T01:50:12.662Z,0.00
2019-05-01T01:51:12.654Z,0.00
2019-05-01T01:52:12.642Z,0.00
2019-05-01T01:53:12.631Z,0.00
2019-05-01T01:54:12.621Z,0.00
2019-05-01T01:55:12.609Z,0.00
2019-05-01T01:56:12.599Z,0.00
2019-05-01T01:57:12.588Z,0.00
2019-05-01T01:58:12.579Z,0.00
2019-05-01T01:59:12.567Z,0.00
2019-05-01T02:00:12.556Z,0.00
2019-05-01T02:01:12.544Z,0.00
2019-05-01T02:02:12.536Z,0.00
2019-05-01T02:03:12.524Z,0.00
2019-05-01T02:04:12.513Z,0.00
2019-05-01T02:05:12.502Z,0.00
2019-05-01T02:06:12.493Z,0.00
2019-05-01T02:07:12.480Z,0.00
2019-05-01T02:08:12.472Z,0.00
2019-05-01T02:09:12.458Z,0.00
2019-05-01T02:10:12.485Z,0.00
2019-05-01T02:11:12.439Z,0.00
2019-05-01T02:12:12.427Z,0.00
2019-05-01T02:13:12.415Z,0.00
2019-05-01T02:14:12.406Z,0.00
2019-05-01T02:15:12.393Z,0.00
2019-05-01T02:16:12.384Z,0.00
2019-05-01T02:17:12.374Z,0.00
2019-05-01T02:18:12.362Z,0.00
2019-05-01T02:19:12.351Z,0.00
2019-05-01T02:20:12.341Z,0.00
2019-05-01T02:21:12.329Z,0.00
2019-05-01T02:22:12.319Z,0.00
2019-05-01T02:23:12.308Z,0.00
2019-05-01T02:24:12.381Z,0.00
2019-05-01T02:25:12.288Z,0.00
2019-05-01T02:26:12.276Z,0.00
2019-05-01T02:27:12.265Z,0.00
2019-05-01T02:28:12.258Z,0.00
2019-05-01T02:29:12.244Z,0.00
2019-05-01T02:30:12.231Z,0.00
2019-05-01T02:31:27.621Z,0.00
2019-05-01T02:32:13.209Z,0.00
2019-05-01T02:33:12.225Z,0.00
2019-05-01T02:34:12.191Z,0.00
2019-05-01T02:35:12.178Z,0.00
2019-05-01T02:36:12.168Z,0.00
2019-05-01T02:37:12.159Z,0.00
2019-05-01T02:38:12.147Z,0.00
2019-05-01T02:39:12.144Z,0.00
2019-05-01T02:40:12.125Z,0.00
2019-05-01T02:41:12.117Z,0.00
2019-05-01T02:42:12.103Z,0.00
2019-05-01T02:43:12.093Z,0.00
2019-05-01T02:44:12.085Z,0.00
2019-05-01T02:45:12.071Z,0.00
2019-05-01T02:46:12.069Z,0.00
2019-05-01T02:47:12.053Z,0.00
2019-05-01T02:48:12.037Z,0.00
2019-05-01T02:49:12.028Z,0.00
2019-05-01T02:50:12.021Z,0.00
2019-05-01T02:51:12.007Z,0.00
2019-05-01T02:52:11.999Z,0.00
2019-05-01T02:53:11.985Z,0.00
2019-05-01T02:54:11.974Z,0.00
2019-05-01T02:55:11.962Z,0.00
2019-05-01T02:56:11.952Z,0.00
2019-05-01T02:57:11.942Z,0.00
2019-05-01T02:58:11.932Z,0.00
2019-05-01T02:59:11.920Z,0.00
2019-05-01T03:00:11.912Z,0.00
2019-05-01T03:01:14.316Z,0.00
2019-05-01T03:02:11.888Z,0.00
2019-05-01T03:03:11.876Z,0.00
2019-05-01T03:04:11.874Z,4.00
2019-05-01T03:05:11.864Z,4.00
2019-05-01T03:06:11.849Z,0.00
2019-05-01T03:07:11.834Z,4.00
2019-05-01T03:08:11.824Z,4.00
2019-05-01T03:09:11.822Z,4.00
2019-05-01T03:10:11.801Z,8.00
2019-05-01T03:11:11.792Z,8.00
2019-05-01T03:12:11.782Z,8.00
2019-05-01T03:13:11.776Z,8.00
2019-05-01T03:14:11.759Z,12.00
2019-05-01T03:15:11.780Z,16.00
2019-05-01T03:16:11.739Z,12.00
2019-05-01T03:17:11.729Z,16.00
2019-05-01T03:18:11.717Z,16.00
2019-05-01T03:19:11.705Z,20.00
2019-05-01T03:20:11.701Z,24.00
2019-05-01T03:21:11.685Z,24.00
2019-05-01T03:22:11.675Z,32.00
2019-05-01T03:23:11.663Z,32.00
2019-05-01T03:24:11.652Z,36.00
2019-05-01T03:25:11.643Z,36.00
2019-05-01T03:26:11.630Z,40.00
2019-05-01T03:27:11.619Z,40.00
2019-05-01T03:28:11.608Z,40.00
2019-05-01T03:29:11.598Z,48.00
2019-05-01T03:30:11.588Z,52.00
2019-05-01T03:31:11.578Z,56.00
2019-05-01T03:32:18.801Z,60.00
2019-05-01T03:33:12.564Z,68.00
2019-05-01T03:34:11.546Z,72.00
2019-05-01T03:35:11.567Z,80.00
2019-05-01T03:36:11.533Z,92.00
2019-05-01T03:37:11.512Z,104.00
2019-05-01T03:38:11.503Z,108.00
2019-05-01T03:39:11.490Z,120.00
2019-05-01T03:40:12.363Z,120.00
2019-05-01T03:41:11.469Z,136.00
2019-05-01T03:42:11.458Z,152.00
2019-05-01T03:43:11.445Z,176.00
2019-05-01T03:44:11.438Z,196.00
2019-05-01T03:45:11.424Z,212.00
2019-05-01T03:46:11.413Z,220.00
2019-05-01T03:47:11.403Z,220.00
2019-05-01T03:48:11.393Z,208.00
2019-05-01T03:49:11.382Z,204.00
2019-05-01T03:50:11.372Z,200.00
2019-05-01T03:51:11.360Z,196.00
2019-05-01T03:52:11.353Z,204.00
2019-05-01T03:53:11.339Z,224.00
2019-05-01T03:54:11.330Z,248.00
2019-05-01T03:55:11.320Z,280.00
2019-05-01T03:56:11.306Z,308.00
2019-05-01T03:57:12.824Z,344.00
2019-05-01T03:58:11.293Z,380.00
2019-05-01T03:59:11.274Z,416.00
2019-05-01T04:00:11.264Z,452.00
2019-05-01T04:01:11.255Z,480.00
2019-05-01T04:02:11.244Z,504.00
2019-05-01T04:03:11.231Z,512.00
2019-05-01T04:04:11.226Z,520.00
2019-05-01T04:05:11.209Z,528.00
2019-05-01T04:06:11.198Z,536.00
2019-05-01T04:07:11.198Z,544.00
2019-05-01T04:08:11.177Z,532.00
2019-05-01T04:09:11.166Z,524.00
2019-05-01T04:10:11.167Z,524.00
2019-05-01T04:11:11.153Z,524.00
2019-05-01T04:12:11.142Z,528.00
2019-05-01T04:13:11.123Z,516.00
2019-05-01T04:14:11.112Z,496.00
2019-05-01T04:15:11.105Z,476.00
2019-05-01T04:16:11.093Z,484.00
2019-05-01T04:17:11.081Z,508.00
2019-05-01T04:18:11.074Z,556.00
2019-05-01T04:19:11.071Z,616.00
2019-05-01T04:20:11.048Z,696.00
2019-05-01T04:21:11.043Z,764.00
2019-05-01T04:22:11.026Z,824.00
2019-05-01T04:23:11.015Z,876.00
2019-05-01T04:24:11.005Z,900.00
2019-05-01T04:25:10.993Z,916.00
2019-05-01T04:26:10.984Z,920.00
2019-05-01T04:27:10.973Z,912.00
2019-05-01T04:28:10.962Z,896.00
2019-05-01T04:29:10.958Z,904.00
2019-05-01T04:30:10.940Z,876.00
2019-05-01T04:31:10.929Z,824.00
2019-05-01T04:32:10.919Z,784.00
2019-05-01T04:33:10.912Z,772.00
2019-05-01T04:34:10.903Z,792.00
2019-05-01T04:35:10.886Z,852.00
2019-05-01T04:36:10.876Z,936.00
2019-05-01T04:37:10.863Z,1016.00
2019-05-01T04:38:10.856Z,1088.00
2019-05-01T04:39:10.842Z,1144.00
2019-05-01T04:40:10.831Z,1172.00
2019-05-01T04:41:10.820Z,1216.00
2019-05-01T04:42:10.812Z,1204.00
2019-05-01T04:43:10.799Z,1140.00
2019-05-01T04:44:10.788Z,1076.00
2019-05-01T04:45:10.781Z,1004.00
2019-05-01T04:46:10.770Z,948.00
2019-05-01T04:47:10.758Z,928.00
2019-05-01T04:48:10.749Z,960.00
2019-05-01T04:49:10.735Z,1012.00
2019-05-01T04:50:10.727Z,1104.00
2019-05-01T04:51:10.749Z,1224.00
2019-05-01T04:52:10.722Z,1360.00
2019-05-01T04:53:10.691Z,1476.00
2019-05-01T04:54:10.680Z,1568.00
2019-05-01T04:55:10.674Z,1624.00
2019-05-01T04:56:10.659Z,1656.00
2019-05-01T04:57:10.648Z,1680.00
2019-05-01T04:58:10.638Z,1676.00
2019-05-01T04:59:10.626Z,1688.00
2019-05-01T05:00:10.616Z,1676.00
2019-05-01T05:01:10.607Z,1668.00
2019-05-01T05:02:10.597Z,1636.00
2019-05-01T05:03:10.583Z,1604.00
2019-05-01T05:04:10.572Z,1612.00
2019-05-01T05:05:10.563Z,1652.00
2019-05-01T05:06:10.558Z,1716.00
2019-05-01T05:07:10.539Z,1796.00
2019-05-01T05:08:10.532Z,1860.00
2019-05-01T05:09:10.517Z,2008.00
2019-05-01T05:10:10.508Z,2272.00
2019-05-01T05:11:10.496Z,2596.00
2019-05-01T05:12:10.486Z,2900.00
2019-05-01T05:13:10.476Z,3136.00
2019-05-01T05:14:10.464Z,3344.00
2019-05-01T05:15:10.456Z,3620.00
2019-05-01T05:16:10.442Z,4032.00
2019-05-01T05:17:10.432Z,4516.00
2019-05-01T05:18:10.423Z,4924.00
2019-05-01T05:19:10.410Z,5224.00
2019-05-01T05:20:10.401Z,5296.00
2019-05-01T05:21:10.390Z,5160.00
2019-05-01T05:22:10.381Z,5068.00
2019-05-01T05:23:10.372Z,4980.00
2019-05-01T05:24:10.357Z,4824.00
2019-05-01T05:25:10.345Z,4748.00
2019-05-01T05:26:10.334Z,4612.00
2019-05-01T05:27:10.354Z,4448.00
2019-05-01T05:28:10.314Z,4260.00
2019-05-01T05:29:10.305Z,4124.00
2019-05-01T05:30:10.290Z,3972.00
2019-05-01T05:31:10.290Z,4008.00
2019-05-01T05:32:10.270Z,4176.00
2019-05-01T05:33:18.260Z,4468.00
2019-05-01T05:34:11.247Z,4648.00
2019-05-01T05:35:10.241Z,4600.00
2019-05-01T05:36:10.229Z,4580.00
2019-05-01T05:37:10.219Z,4468.00
2019-05-01T05:38:10.206Z,4476.00
2019-05-01T05:39:10.194Z,4868.00
2019-05-01T05:40:10.185Z,4776.00
2019-05-01T05:41:10.175Z,5408.00
2019-05-01T05:42:10.166Z,5392.00
2019-05-01T05:43:10.153Z,5248.00
2019-05-01T05:44:10.142Z,5304.00
2019-05-01T05:45:10.130Z,5200.00
2019-05-01T05:46:10.119Z,5272.00
2019-05-01T05:47:10.110Z,5600.00
2019-05-01T05:48:10.098Z,6356.00
2019-05-01T05:49:10.088Z,7592.00
2019-05-01T05:50:10.078Z,7984.00
2019-05-01T05:51:10.067Z,8296.00
2019-05-01T05:52:10.060Z,8408.00
2019-05-01T05:53:10.047Z,8652.00
2019-05-01T05:54:10.035Z,8748.00
2019-05-01T05:55:10.023Z,8676.00
2019-05-01T05:56:10.012Z,7680.00
2019-05-01T05:57:10.004Z,7900.00
2019-05-01T05:58:09.992Z,8288.00
2019-05-01T05:59:09.978Z,9640.00
2019-05-01T06:00:09.971Z,10104.00
2019-05-01T06:01:09.957Z,10488.00
2019-05-01T06:02:09.948Z,10980.00
2019-05-01T06:03:09.937Z,11420.00
2019-05-01T06:04:09.926Z,11692.00
2019-05-01T06:05:09.915Z,11416.00
2019-05-01T06:06:09.907Z,12012.00
2019-05-01T06:07:09.895Z,9880.00
2019-05-01T06:08:09.884Z,8988.00
2019-05-01T06:09:13.952Z,8344.00
2019-05-01T06:10:10.867Z,8228.00
2019-05-01T06:11:09.853Z,8012.00
2019-05-01T06:12:10.199Z,7764.00
2019-05-01T06:13:09.831Z,7688.00
2019-05-01T06:14:09.817Z,8000.00
2019-05-01T06:15:09.806Z,9012.00
2019-05-01T06:16:12.273Z,10164.00
2019-05-01T06:17:10.784Z,12348.00
2019-05-01T06:18:09.778Z,10248.00
2019-05-01T06:19:14.442Z,10004.00
2019-05-01T06:20:10.753Z,9020.00
2019-05-01T06:21:12.696Z,7992.00
2019-05-01T06:22:11.343Z,7152.00
2019-05-01T06:23:09.720Z,6412.00
2019-05-01T06:24:09.712Z,5992.00
2019-05-01T06:25:21.080Z,5828.00
2019-05-01T06:26:10.688Z,5928.00
2019-05-01T06:27:13.840Z,6368.00
2019-05-01T06:28:10.664Z,6856.00
2019-05-01T06:29:09.660Z,6660.00
2019-05-01T06:30:11.045Z,6136.00
2019-05-01T06:31:09.634Z,5640.00
2019-05-01T06:32:09.623Z,4988.00
2019-05-01T06:33:11.174Z,4596.00
2019-05-01T06:34:09.600Z,4428.00
2019-05-01T06:35:09.591Z,4456.00
2019-05-01T06:36:13.222Z,4432.00
2019-05-01T06:37:09.569Z,4480.00
2019-05-01T06:38:09.557Z,4632.00
2019-05-01T06:39:11.966Z,4964.00
2019-05-01T06:40:09.535Z,5428.00
2019-05-01T06:41:09.524Z,5868.00
2019-05-01T06:42:09.913Z,6404.00
2019-05-01T06:43:10.501Z,6716.00
2019-05-01T06:44:09.493Z,6924.00
2019-05-01T06:45:13.123Z,7260.00
2019-05-01T06:46:10.477Z,7560.00
2019-05-01T06:47:09.461Z,8268.00
2019-05-01T06:48:09.450Z,9316.00
2019-05-01T06:49:09.438Z,7936.00
2019-05-01T06:50:09.427Z,6956.00
2019-05-01T06:51:13.054Z,6592.00
2019-05-01T06:52:10.405Z,6584.00
2019-05-01T06:53:09.397Z,6896.00
2019-05-01T06:54:11.385Z,7712.00
2019-05-01T06:55:10.369Z,8904.00
2019-05-01T06:56:09.364Z,9604.00
2019-05-01T06:57:09.350Z,9660.00
2019-05-01T06:58:09.339Z,9844.00
2019-05-01T06:59:09.327Z,10284.00
2019-05-01T07:00:09.528Z,10424.00
2019-05-01T07:01:09.307Z,10324.00
2019-05-01T07:02:09.295Z,9692.00
2019-05-01T07:03:10.399Z,9020.00
2019-05-01T07:04:09.273Z,9256.00
2019-05-01T07:05:14.452Z,9896.00
2019-05-01T07:06:14.305Z,10324.00
2019-05-01T07:07:23.991Z,10452.00
2019-05-01T07:08:10.234Z,10604.00
2019-05-01T07:09:11.768Z,10972.00
2019-05-01T07:10:09.210Z,10676.00
2019-05-01T07:11:10.851Z,9760.00
2019-05-01T07:12:10.185Z,8736.00
2019-05-01T07:13:09.175Z,8096.00
2019-05-01T07:14:11.130Z,7832.00
2019-05-01T07:15:10.153Z,7768.00
2019-05-01T07:16:09.143Z,7992.00
2019-05-01T07:17:13.458Z,8256.00
2019-05-01T07:18:11.559Z,8236.00
2019-05-01T07:19:09.110Z,8032.00
2019-05-01T07:20:11.855Z,7528.00
2019-05-01T07:21:10.087Z,6924.00
2019-05-01T07:22:09.079Z,6168.00
2019-05-01T07:23:12.814Z,5656.00
2019-05-01T07:24:10.057Z,5444.00
2019-05-01T07:25:09.043Z,5336.00
2019-05-01T07:26:09.971Z,5444.00
2019-05-01T07:27:09.022Z,5688.00
2019-05-01T07:28:09.011Z,5868.00
2019-05-01T07:29:09.998Z,6044.00
2019-05-01T07:30:08.990Z,6272.00
2019-05-01T07:31:08.980Z,6680.00
2019-05-01T07:32:08.971Z,7024.00
2019-05-01T07:33:12.076Z,7304.00
2019-05-01T07:34:16.329Z,7672.00
2019-05-01T07:35:09.933Z,8268.00
2019-05-01T07:36:15.516Z,9092.00
2019-05-01T07:37:09.912Z,9824.00
2019-05-01T07:38:08.902Z,10476.00
2019-05-01T07:39:14.248Z,11212.00
2019-05-01T07:40:09.878Z,11444.00
2019-05-01T07:41:08.870Z,10668.00
2019-05-01T07:42:12.434Z,11280.00
2019-05-01T07:43:08.869Z,10932.00
2019-05-01T07:44:08.842Z,11732.00
2019-05-01T07:45:09.750Z,12064.00
2019-05-01T07:46:08.816Z,12616.00
2019-05-01T07:47:08.805Z,13664.00
2019-05-01T07:48:08.793Z,13824.00
2019-05-01T07:49:12.924Z,14240.00
2019-05-01T07:50:09.770Z,14136.00
2019-05-01T07:51:08.983Z,14072.00
2019-05-01T07:52:12.507Z,14400.00
2019-05-01T07:53:09.740Z,14008.00
2019-05-01T07:54:09.051Z,14024.00
2019-05-01T07:55:12.976Z,13896.00
2019-05-01T07:56:09.707Z,14064.00
2019-05-01T07:57:08.714Z,13792.00
2019-05-01T07:58:10.461Z,13356.00
2019-05-01T07:59:09.675Z,13612.00
2019-05-01T08:00:08.705Z,14020.00
2019-05-01T08:01:12.921Z,11288.00
2019-05-01T08:02:09.642Z,11740.00
2019-05-01T08:03:08.638Z,11800.00
2019-05-01T08:04:08.621Z,12532.00
2019-05-01T08:05:09.935Z,14248.00
2019-05-01T08:06:08.602Z,15364.00
2019-05-01T08:07:08.589Z,17600.00
2019-05-01T08:08:09.642Z,17536.00
2019-05-01T08:09:11.272Z,21376.00
2019-05-01T08:10:09.558Z,25472.00
2019-05-01T08:11:10.318Z,39616.00
2019-05-01T08:12:08.535Z,32576.00
2019-05-01T08:13:08.538Z,28928.00
2019-05-01T08:14:11.974Z,35904.00
2019-05-01T08:15:09.501Z,30240.00
2019-05-01T08:16:08.811Z,31936.00
2019-05-01T08:17:08.484Z,34912.00
2019-05-01T08:18:08.480Z,33888.00
2019-05-01T08:19:08.459Z,46240.00
2019-05-01T08:20:09.990Z,61472.00
2019-05-01T08:21:09.481Z,29216.00
2019-05-01T08:22:08.427Z,33216.00
2019-05-01T08:23:12.097Z,63552.00
2019-05-01T08:24:09.419Z,41472.00
2019-05-01T08:25:08.395Z,32960.00
2019-05-01T08:26:08.948Z,46464.00
2019-05-01T08:27:08.377Z,32736.00
2019-05-01T08:28:08.364Z,34432.00
2019-05-01T08:29:08.354Z,22624.00
2019-05-01T08:30:08.341Z,22112.00
2019-05-01T08:31:08.331Z,47264.00
2019-05-01T08:32:08.321Z,40064.00
2019-05-01T08:33:09.806Z,75488.00
2019-05-01T08:34:09.299Z,47328.00
2019-05-01T08:35:08.291Z,50592.00
2019-05-01T08:36:11.770Z,55552.00
2019-05-01T08:37:09.266Z,45952.00
2019-05-01T08:38:08.258Z,82752.00
2019-05-01T08:39:09.082Z,75264.00
2019-05-01T08:40:08.235Z,37152.00
2019-05-01T08:41:08.236Z,43744.00
2019-05-01T08:42:08.267Z,34176.00
2019-05-01T08:43:08.207Z,40576.00
2019-05-01T08:44:08.197Z,34016.00
2019-05-01T08:45:08.183Z,52128.00
2019-05-01T08:46:11.851Z,75872.00
2019-05-01T08:47:09.160Z,45760.00
2019-05-01T08:48:08.150Z,57344.00
2019-05-01T08:49:11.351Z,66784.00
2019-05-01T08:50:08.129Z,75232.00
2019-05-01T08:51:08.119Z,76384.00
2019-05-01T08:52:12.581Z,77504.00
2019-05-01T08:53:09.098Z,78464.00
2019-05-01T08:54:08.087Z,81984.00
2019-05-01T08:55:09.217Z,76608.00
2019-05-01T08:56:09.772Z,85632.00
2019-05-01T08:57:08.179Z,83808.00
2019-05-01T08:58:08.823Z,52320.00
2019-05-01T08:59:09.034Z,56800.00
2019-05-01T09:00:08.027Z,33632.00
2019-05-01T09:01:10.756Z,46240.00
2019-05-01T09:02:09.962Z,30208.00
2019-05-01T09:03:08.882Z,38880.00
2019-05-01T09:04:13.091Z,31936.00
2019-05-01T09:05:26.987Z,43712.00
2019-05-01T09:06:08.962Z,26368.00
2019-05-01T09:07:07.952Z,55520.00
2019-05-01T09:08:07.942Z,29792.00
2019-05-01T09:09:09.813Z,48864.00
2019-05-01T09:10:09.204Z,35872.00
2019-05-01T09:11:07.908Z,33344.00
2019-05-01T09:12:11.749Z,37856.00
2019-05-01T09:13:08.892Z,63488.00
2019-05-01T09:14:07.881Z,87360.00
2019-05-01T09:15:12.457Z,33824.00
2019-05-01T09:16:08.856Z,33792.00
2019-05-01T09:17:07.845Z,38592.00
2019-05-01T09:18:07.850Z,31072.00
2019-05-01T09:19:07.824Z,41600.00
2019-05-01T09:20:07.819Z,37216.00
2019-05-01T09:21:07.818Z,50304.00
2019-05-01T09:22:07.799Z,36096.00
2019-05-01T09:23:09.517Z,70080.00
2019-05-01T09:24:09.483Z,73600.00
2019-05-01T09:25:07.778Z,63040.00
2019-05-01T09:26:14.631Z,29088.00
2019-05-01T09:27:08.752Z,27200.00
2019-05-01T09:28:07.764Z,29408.00
2019-05-01T09:29:11.059Z,48608.00
2019-05-01T09:30:08.719Z,62432.00
2019-05-01T09:31:07.706Z,41184.00
2019-05-01T09:32:10.282Z,28256.00
2019-05-01T09:33:07.681Z,29792.00
2019-05-01T09:34:09.474Z,28288.00
2019-05-01T09:35:15.444Z,42144.00
2019-05-01T09:36:08.656Z,26400.00
2019-05-01T09:37:07.640Z,24736.00
2019-05-01T09:38:07.628Z,26144.00
2019-05-01T09:39:07.621Z,25024.00
2019-05-01T09:40:09.166Z,23872.00
2019-05-01T09:41:07.594Z,24640.00
2019-05-01T09:42:07.586Z,25792.00
2019-05-01T09:43:07.571Z,23840.00
2019-05-01T09:44:10.795Z,25216.00
2019-05-01T09:45:07.554Z,28480.00
2019-05-01T09:46:07.540Z,33184.00
2019-05-01T09:47:07.538Z,31616.00
2019-05-01T09:48:07.519Z,26080.00
2019-05-01T09:49:07.508Z,25216.00
2019-05-01T09:50:07.498Z,26144.00
2019-05-01T09:51:07.487Z,27200.00
2019-05-01T09:52:07.480Z,31424.00
2019-05-01T09:53:07.467Z,29632.00
2019-05-01T09:54:09.817Z,38400.00
2019-05-01T09:55:07.459Z,42784.00
2019-05-01T09:56:08.838Z,34720.00
2019-05-01T09:57:07.425Z,29312.00
2019-05-01T09:58:07.412Z,33344.00
2019-05-01T09:59:07.405Z,84480.00
2019-05-01T10:00:07.390Z,30400.00
2019-05-01T10:01:07.384Z,26592.00
2019-05-01T10:02:07.946Z,23968.00
2019-05-01T10:03:07.362Z,42976.00
2019-05-01T10:04:07.359Z,71264.00
2019-05-01T10:05:07.911Z,64448.00
2019-05-01T10:06:07.330Z,35392.00
2019-05-01T10:07:07.317Z,100032.00
2019-05-01T10:08:07.306Z,96928.00
2019-05-01T10:09:07.351Z,92320.00
2019-05-01T10:10:07.298Z,72800.00
2019-05-01T10:11:07.280Z,89056.00
2019-05-01T10:12:11.636Z,96640.00
2019-05-01T10:13:08.290Z,100576.00
2019-05-01T10:14:07.328Z,103072.00
2019-05-01T10:15:07.242Z,83008.00
2019-05-01T10:16:07.230Z,100128.00
2019-05-01T10:17:07.220Z,31104.00
2019-05-01T10:18:07.209Z,28192.00
2019-05-01T10:19:07.198Z,63808.00
2019-05-01T10:20:07.187Z,91584.00
2019-05-01T10:21:07.191Z,54464.00
2019-05-01T10:22:07.169Z,89696.00
2019-05-01T10:23:07.791Z,80832.00
2019-05-01T10:24:08.147Z,94304.00
2019-05-01T10:25:08.490Z,77632.00
2019-05-01T10:26:07.141Z,97184.00
2019-05-01T10:27:07.119Z,99232.00
2019-05-01T10:28:12.095Z,100864.00
2019-05-01T10:29:08.105Z,102240.00
2019-05-01T10:30:07.101Z,96160.00
2019-05-01T10:31:11.711Z,91744.00
2019-05-01T10:32:08.089Z,90432.00
2019-05-01T10:33:07.057Z,90624.00
2019-05-01T10:34:07.705Z,84704.00
2019-05-01T10:35:07.040Z,92064.00
2019-05-01T10:36:07.038Z,95200.00
2019-05-01T10:37:07.015Z,91072.00
2019-05-01T10:38:09.434Z,96608.00
2019-05-01T10:39:07.008Z,88480.00
2019-05-01T10:40:06.985Z,84192.00
2019-05-01T10:41:09.120Z,87936.00
2019-05-01T10:42:06.977Z,88192.00
2019-05-01T10:43:06.963Z,88672.00
2019-05-01T10:44:06.949Z,91168.00
2019-05-01T10:45:06.938Z,78400.00
2019-05-01T10:46:06.927Z,86048.00
2019-05-01T10:47:06.918Z,47872.00
2019-05-01T10:48:06.911Z,86336.00
2019-05-01T10:49:06.897Z,88096.00
2019-05-01T10:50:06.884Z,93952.00
2019-05-01T10:51:06.879Z,93472.00
2019-05-01T10:52:13.992Z,95328.00
2019-05-01T10:53:07.857Z,93952.00
2019-05-01T10:54:06.842Z,95424.00
2019-05-01T10:55:06.830Z,95072.00
2019-05-01T10:56:06.821Z,89504.00
2019-05-01T10:57:06.832Z,83328.00
2019-05-01T10:58:06.813Z,85664.00
2019-05-01T10:59:06.800Z,88224.00
2019-05-01T11:00:06.783Z,92512.00
2019-05-01T11:01:06.772Z,94752.00
2019-05-01T11:02:06.764Z,96352.00
2019-05-01T11:03:06.756Z,99360.00
2019-05-01T11:04:06.747Z,97376.00
2019-05-01T11:05:06.736Z,93312.00
2019-05-01T11:06:06.729Z,100192.00
2019-05-01T11:07:06.721Z,97920.00
2019-05-01T11:08:06.706Z,96832.00
2019-05-01T11:09:06.698Z,94016.00
2019-05-01T11:10:06.683Z,96640.00
2019-05-01T11:11:06.675Z,101312.00
2019-05-01T11:12:06.667Z,91744.00
2019-05-01T11:13:07.860Z,98272.00
2019-05-01T11:14:06.646Z,95296.00
2019-05-01T11:15:06.637Z,94176.00
2019-05-01T11:16:06.629Z,79392.00
2019-05-01T11:17:06.621Z,62656.00
2019-05-01T11:18:06.609Z,41600.00
2019-05-01T11:19:06.605Z,69312.00
2019-05-01T11:20:06.591Z,104832.00
2019-05-01T11:21:06.578Z,102816.00
2019-05-01T11:22:06.564Z,88288.00
2019-05-01T11:23:06.556Z,98240.00
2019-05-01T11:24:06.547Z,100448.00
2019-05-01T11:25:06.541Z,100864.00
2019-05-01T11:26:06.524Z,91200.00
2019-05-01T11:27:06.518Z,60416.00
2019-05-01T11:28:06.504Z,82528.00
2019-05-01T11:29:06.497Z,100576.00
2019-05-01T11:30:06.494Z,98304.00
2019-05-01T11:31:06.477Z,100224.00
2019-05-01T11:32:06.465Z,68000.00
2019-05-01T11:33:06.457Z,55360.00
2019-05-01T11:34:06.445Z,60768.00
2019-05-01T11:35:06.434Z,56512.00
2019-05-01T11:36:09.697Z,27168.00
2019-05-01T11:37:06.416Z,24480.00
2019-05-01T11:38:06.408Z,22688.00
2019-05-01T11:39:06.397Z,27104.00
2019-05-01T11:40:06.384Z,74496.00
2019-05-01T11:41:06.374Z,66624.00
2019-05-01T11:42:06.365Z,42016.00
2019-05-01T11:43:06.348Z,56928.00
2019-05-01T11:44:06.344Z,106368.00
2019-05-01T11:45:06.331Z,104320.00
2019-05-01T11:46:06.320Z,102720.00
2019-05-01T11:47:06.308Z,102752.00
2019-05-01T11:48:06.299Z,84640.00
2019-05-01T11:49:06.294Z,34688.00
2019-05-01T11:50:06.296Z,39328.00
2019-05-01T11:51:06.279Z,101120.00
2019-05-01T11:52:06.259Z,54560.00
2019-05-01T11:53:06.245Z,103168.00
2019-05-01T11:54:06.236Z,91584.00
2019-05-01T11:55:06.226Z,101216.00
2019-05-01T11:56:06.217Z,100544.00
2019-05-01T11:57:06.203Z,102336.00
2019-05-01T11:58:06.197Z,101824.00
2019-05-01T11:59:06.186Z,100192.00
2019-05-01T12:00:06.175Z,98528.00
2019-05-01T12:01:06.184Z,96672.00
2019-05-01T12:02:06.154Z,100288.00
2019-05-01T12:03:06.145Z,99680.00
2019-05-01T12:04:06.137Z,95584.00
2019-05-01T12:05:06.127Z,83904.00
2019-05-01T12:06:06.116Z,91392.00
2019-05-01T12:07:06.103Z,98144.00
2019-05-01T12:08:06.106Z,87584.00
2019-05-01T12:09:06.079Z,95296.00
2019-05-01T12:10:06.075Z,77824.00
2019-05-01T12:11:06.061Z,93984.00
2019-05-01T12:12:06.053Z,98912.00
2019-05-01T12:13:06.039Z,99392.00
2019-05-01T12:14:06.041Z,84320.00
2019-05-01T12:15:06.020Z,101632.00
2019-05-01T12:16:06.008Z,101536.00